sensor_id;sensor_type;location;lat;lon;timestamp;P1;durP1;ratioP1;P2;durP2;ratioP2
52650;SDS011;38537;47.226;39.702;2023-02-26T00:01:39;2.88;;;1.90;;
52650;SDS011;38537;47.226;39.702;2023-02-26T00:04:09;4.40;;;1.92;;
52650;SDS011;38537;47.226;39.702;2023-02-26T00:06:38;2.58;;;1.98;;
52650;SDS011;38537;47.226;39.702;2023-02-26T00:09:25;2.83;;;1.83;;
52650;SDS011;38537;47.226;39.702;2023-02-26T00:11:53;4.25;;;2.05;;
52650;SDS011;38537;47.226;39.702;2023-02-26T00:14:20;4.10;;;2.17;;
52650;SDS011;38537;47.226;39.702;2023-02-26T00:17:05;3.13;;;1.70;;
52650;SDS011;38537;47.226;39.702;2023-02-26T00:19:44;2.20;;;2.00;;
52650;SDS011;38537;47.226;39.702;2023-02-26T00:22:11;3.72;;;2.10;;
52650;SDS011;38537;47.226;39.702;2023-02-26T00:24:39;4.53;;;2.30;;
52650;SDS011;38537;47.226;39.702;2023-02-26T00:27:06;2.35;;;1.80;;
52650;SDS011;38537;47.226;39.702;2023-02-26T00:29:33;4.78;;;2.30;;
52650;SDS011;38537;47.226;39.702;2023-02-26T00:32:02;2.53;;;1.80;;
52650;SDS011;38537;47.226;39.702;2023-02-26T00:34:30;3.78;;;1.90;;
52650;SDS011;38537;47.226;39.702;2023-02-26T00:37:02;3.30;;;2.05;;
52650;SDS011;38537;47.226;39.702;2023-02-26T00:39:58;2.42;;;1.73;;
52650;SDS011;38537;47.226;39.702;2023-02-26T00:42:40;2.85;;;2.15;;
52650;SDS011;38537;47.226;39.702;2023-02-26T00:45:08;2.60;;;2.17;;
52650;SDS011;38537;47.226;39.702;2023-02-26T00:47:42;3.75;;;2.00;;
52650;SDS011;38537;47.226;39.702;2023-02-26T00:50:29;3.50;;;2.15;;
52650;SDS011;38537;47.226;39.702;2023-02-26T00:55:37;4.07;;;2.30;;
52650;SDS011;38537;47.226;39.702;2023-02-26T00:58:04;3.10;;;2.47;;
52650;SDS011;38537;47.226;39.702;2023-02-26T01:00:32;3.42;;;2.40;;
52650;SDS011;38537;47.226;39.702;2023-02-26T01:03:01;4.40;;;2.47;;
52650;SDS011;38537;47.226;39.702;2023-02-26T01:05:29;3.75;;;2.00;;
52650;SDS011;38537;47.226;39.702;2023-02-26T01:08:00;3.17;;;2.20;;
52650;SDS011;38537;47.226;39.702;2023-02-26T01:10:34;3.17;;;2.20;;
52650;SDS011;38537;47.226;39.702;2023-02-26T01:13:01;4.45;;;2.60;;
52650;SDS011;38537;47.226;39.702;2023-02-26T01:15:29;3.75;;;2.22;;
52650;SDS011;38537;47.226;39.702;2023-02-26T01:21:02;2.95;;;2.03;;
52650;SDS011;38537;47.226;39.702;2023-02-26T01:23:37;3.35;;;2.28;;
52650;SDS011;38537;47.226;39.702;2023-02-26T01:26:17;4.15;;;2.33;;
52650;SDS011;38537;47.226;39.702;2023-02-26T01:28:50;4.28;;;2.05;;
52650;SDS011;38537;47.226;39.702;2023-02-26T01:31:42;2.28;;;1.90;;
52650;SDS011;38537;47.226;39.702;2023-02-26T01:39:43;3.40;;;2.00;;
52650;SDS011;38537;47.226;39.702;2023-02-26T01:42:17;2.75;;;2.10;;
52650;SDS011;38537;47.226;39.702;2023-02-26T01:44:58;3.45;;;2.50;;
52650;SDS011;38537;47.226;39.702;2023-02-26T01:50:25;4.63;;;2.42;;
52650;SDS011;38537;47.226;39.702;2023-02-26T01:55:40;4.65;;;2.38;;
52650;SDS011;38537;47.226;39.702;2023-02-26T01:58:10;3.05;;;2.42;;
52650;SDS011;38537;47.226;39.702;2023-02-26T02:00:38;5.40;;;2.65;;
52650;SDS011;38537;47.226;39.702;2023-02-26T02:03:05;5.35;;;2.60;;
52650;SDS011;38537;47.226;39.702;2023-02-26T02:05:44;5.18;;;2.70;;
52650;SDS011;38537;47.226;39.702;2023-02-26T02:08:16;4.60;;;2.90;;
52650;SDS011;38537;47.226;39.702;2023-02-26T02:10:47;5.50;;;2.85;;
52650;SDS011;38537;47.226;39.702;2023-02-26T02:33:37;5.50;;;2.28;;
52650;SDS011;38537;47.226;39.702;2023-02-26T02:36:14;3.53;;;2.10;;
52650;SDS011;38537;47.226;39.702;2023-02-26T02:38:56;3.97;;;2.22;;
52650;SDS011;38537;47.226;39.702;2023-02-26T02:41:33;3.83;;;2.05;;
52650;SDS011;38537;47.226;39.702;2023-02-26T02:46:37;3.33;;;1.92;;
52650;SDS011;38537;47.226;39.702;2023-02-26T02:49:19;4.97;;;2.08;;
52650;SDS011;38537;47.226;39.702;2023-02-26T02:51:53;3.97;;;2.15;;
52650;SDS011;38537;47.226;39.702;2023-02-26T02:57:14;2.95;;;2.30;;
52650;SDS011;38537;47.226;39.702;2023-02-26T02:59:48;3.08;;;2.00;;
52650;SDS011;38537;47.226;39.702;2023-02-26T03:02:24;2.85;;;1.92;;
52650;SDS011;38537;47.226;39.702;2023-02-26T03:04:58;3.65;;;2.10;;
52650;SDS011;38537;47.226;39.702;2023-02-26T03:07:25;3.97;;;2.03;;
52650;SDS011;38537;47.226;39.702;2023-02-26T03:09:54;2.85;;;2.20;;
52650;SDS011;38537;47.226;39.702;2023-02-26T03:12:21;2.63;;;2.08;;
52650;SDS011;38537;47.226;39.702;2023-02-26T03:14:51;3.30;;;2.33;;
52650;SDS011;38537;47.226;39.702;2023-02-26T03:23:22;4.75;;;2.20;;
52650;SDS011;38537;47.226;39.702;2023-02-26T03:26:31;4.72;;;2.30;;
52650;SDS011;38537;47.226;39.702;2023-02-26T03:31:56;2.75;;;2.10;;
52650;SDS011;38537;47.226;39.702;2023-02-26T03:34:48;4.13;;;2.40;;
52650;SDS011;38537;47.226;39.702;2023-02-26T03:37:20;3.38;;;2.47;;
52650;SDS011;38537;47.226;39.702;2023-02-26T03:39:54;5.65;;;2.38;;
52650;SDS011;38537;47.226;39.702;2023-02-26T03:42:31;3.17;;;2.47;;
52650;SDS011;38537;47.226;39.702;2023-02-26T03:45:18;4.82;;;2.75;;
52650;SDS011;38537;47.226;39.702;2023-02-26T03:47:51;4.95;;;2.35;;
52650;SDS011;38537;47.226;39.702;2023-02-26T03:50:26;3.85;;;2.53;;
52650;SDS011;38537;47.226;39.702;2023-02-26T03:53:31;3.95;;;2.35;;
52650;SDS011;38537;47.226;39.702;2023-02-26T03:59:10;3.15;;;2.30;;
52650;SDS011;38537;47.226;39.702;2023-02-26T04:02:03;4.07;;;2.22;;
52650;SDS011;38537;47.226;39.702;2023-02-26T04:07:11;5.28;;;2.55;;
52650;SDS011;38537;47.226;39.702;2023-02-26T04:09:40;3.25;;;2.17;;
52650;SDS011;38537;47.226;39.702;2023-02-26T04:12:08;4.68;;;2.15;;
52650;SDS011;38537;47.226;39.702;2023-02-26T04:14:38;3.33;;;2.35;;
52650;SDS011;38537;47.226;39.702;2023-02-26T04:17:05;3.65;;;2.50;;
52650;SDS011;38537;47.226;39.702;2023-02-26T04:19:32;4.53;;;2.53;;
52650;SDS011;38537;47.226;39.702;2023-02-26T04:22:00;5.03;;;2.67;;
52650;SDS011;38537;47.226;39.702;2023-02-26T04:24:27;4.07;;;2.72;;
52650;SDS011;38537;47.226;39.702;2023-02-26T04:26:58;3.80;;;2.47;;
52650;SDS011;38537;47.226;39.702;2023-02-26T04:29:25;4.10;;;2.72;;
52650;SDS011;38537;47.226;39.702;2023-02-26T04:31:53;4.07;;;2.70;;
52650;SDS011;38537;47.226;39.702;2023-02-26T04:34:22;3.80;;;2.78;;
52650;SDS011;38537;47.226;39.702;2023-02-26T04:36:49;4.72;;;2.70;;
52650;SDS011;38537;47.226;39.702;2023-02-26T04:39:17;4.00;;;2.83;;
52650;SDS011;38537;47.226;39.702;2023-02-26T04:41:45;4.43;;;2.80;;
52650;SDS011;38537;47.226;39.702;2023-02-26T04:44:13;3.28;;;2.40;;
52650;SDS011;38537;47.226;39.702;2023-02-26T04:46:40;4.03;;;2.38;;
52650;SDS011;38537;47.226;39.702;2023-02-26T04:49:08;5.78;;;2.70;;
52650;SDS011;38537;47.226;39.702;2023-02-26T04:51:38;3.22;;;2.40;;
52650;SDS011;38537;47.226;39.702;2023-02-26T04:54:07;4.55;;;2.70;;
52650;SDS011;38537;47.226;39.702;2023-02-26T04:56:35;4.00;;;2.58;;
52650;SDS011;38537;47.226;39.702;2023-02-26T04:59:04;3.53;;;2.45;;
52650;SDS011;38537;47.226;39.702;2023-02-26T05:01:33;2.75;;;2.45;;
52650;SDS011;38537;47.226;39.702;2023-02-26T05:04:01;5.07;;;2.88;;
52650;SDS011;38537;47.226;39.702;2023-02-26T05:06:28;3.78;;;2.63;;
52650;SDS011;38537;47.226;39.702;2023-02-26T05:08:56;4.45;;;2.55;;
52650;SDS011;38537;47.226;39.702;2023-02-26T05:11:23;4.55;;;2.90;;
52650;SDS011;38537;47.226;39.702;2023-02-26T05:13:50;4.50;;;3.00;;
52650;SDS011;38537;47.226;39.702;2023-02-26T05:16:17;3.63;;;2.65;;
52650;SDS011;38537;47.226;39.702;2023-02-26T05:18:46;3.53;;;2.70;;
52650;SDS011;38537;47.226;39.702;2023-02-26T05:21:13;3.78;;;2.60;;
52650;SDS011;38537;47.226;39.702;2023-02-26T05:23:41;7.15;;;3.20;;
52650;SDS011;38537;47.226;39.702;2023-02-26T05:26:09;4.78;;;3.30;;
52650;SDS011;38537;47.226;39.702;2023-02-26T05:28:36;9.27;;;3.28;;
52650;SDS011;38537;47.226;39.702;2023-02-26T05:31:04;6.97;;;3.20;;
52650;SDS011;38537;47.226;39.702;2023-02-26T05:33:34;6.85;;;3.60;;
52650;SDS011;38537;47.226;39.702;2023-02-26T05:36:01;15.32;;;3.80;;
52650;SDS011;38537;47.226;39.702;2023-02-26T05:38:28;10.77;;;3.80;;
52650;SDS011;38537;47.226;39.702;2023-02-26T05:40:56;7.50;;;3.60;;
52650;SDS011;38537;47.226;39.702;2023-02-26T05:43:24;7.70;;;3.60;;
52650;SDS011;38537;47.226;39.702;2023-02-26T05:45:52;5.78;;;3.35;;
52650;SDS011;38537;47.226;39.702;2023-02-26T05:48:21;8.35;;;3.63;;
52650;SDS011;38537;47.226;39.702;2023-02-26T05:50:50;7.43;;;3.10;;
52650;SDS011;38537;47.226;39.702;2023-02-26T05:53:17;10.00;;;3.85;;
52650;SDS011;38537;47.226;39.702;2023-02-26T05:55:45;8.32;;;3.40;;
52650;SDS011;38537;47.226;39.702;2023-02-26T05:58:12;4.50;;;3.00;;
52650;SDS011;38537;47.226;39.702;2023-02-26T06:00:40;6.45;;;3.30;;
52650;SDS011;38537;47.226;39.702;2023-02-26T06:03:08;5.22;;;3.30;;
52650;SDS011;38537;47.226;39.702;2023-02-26T06:05:35;6.18;;;3.42;;
52650;SDS011;38537;47.226;39.702;2023-02-26T06:08:03;5.78;;;3.50;;
52650;SDS011;38537;47.226;39.702;2023-02-26T06:10:31;10.32;;;3.95;;
52650;SDS011;38537;47.226;39.702;2023-02-26T06:12:58;8.63;;;3.38;;
52650;SDS011;38537;47.226;39.702;2023-02-26T06:15:26;12.55;;;3.90;;
52650;SDS011;38537;47.226;39.702;2023-02-26T06:17:53;9.10;;;3.95;;
52650;SDS011;38537;47.226;39.702;2023-02-26T06:20:20;11.13;;;4.30;;
52650;SDS011;38537;47.226;39.702;2023-02-26T06:22:48;8.57;;;3.65;;
52650;SDS011;38537;47.226;39.702;2023-02-26T06:25:16;8.98;;;3.45;;
52650;SDS011;38537;47.226;39.702;2023-02-26T06:27:43;8.45;;;4.05;;
52650;SDS011;38537;47.226;39.702;2023-02-26T06:30:11;5.78;;;3.25;;
52650;SDS011;38537;47.226;39.702;2023-02-26T06:32:38;5.57;;;3.22;;
52650;SDS011;38537;47.226;39.702;2023-02-26T06:35:05;4.93;;;3.35;;
52650;SDS011;38537;47.226;39.702;2023-02-26T06:37:33;7.28;;;3.40;;
52650;SDS011;38537;47.226;39.702;2023-02-26T06:40:01;5.18;;;3.10;;
52650;SDS011;38537;47.226;39.702;2023-02-26T06:42:29;6.97;;;3.13;;
52650;SDS011;38537;47.226;39.702;2023-02-26T06:44:57;5.57;;;3.40;;
52650;SDS011;38537;47.226;39.702;2023-02-26T06:47:24;5.68;;;3.45;;
52650;SDS011;38537;47.226;39.702;2023-02-26T06:49:51;5.20;;;3.65;;
52650;SDS011;38537;47.226;39.702;2023-02-26T06:52:18;6.20;;;3.10;;
52650;SDS011;38537;47.226;39.702;2023-02-26T06:54:45;5.35;;;3.55;;
52650;SDS011;38537;47.226;39.702;2023-02-26T06:57:13;4.90;;;3.13;;
52650;SDS011;38537;47.226;39.702;2023-02-26T06:59:40;3.85;;;3.10;;
52650;SDS011;38537;47.226;39.702;2023-02-26T07:02:11;4.13;;;3.00;;
52650;SDS011;38537;47.226;39.702;2023-02-26T07:04:42;5.53;;;3.50;;
52650;SDS011;38537;47.226;39.702;2023-02-26T07:07:09;4.65;;;3.00;;
52650;SDS011;38537;47.226;39.702;2023-02-26T07:09:37;4.60;;;3.60;;
52650;SDS011;38537;47.226;39.702;2023-02-26T07:12:05;5.78;;;3.50;;
52650;SDS011;38537;47.226;39.702;2023-02-26T07:14:33;4.85;;;3.35;;
52650;SDS011;38537;47.226;39.702;2023-02-26T07:17:01;3.78;;;3.10;;
52650;SDS011;38537;47.226;39.702;2023-02-26T07:19:29;5.10;;;3.35;;
52650;SDS011;38537;47.226;39.702;2023-02-26T07:21:56;5.05;;;3.47;;
52650;SDS011;38537;47.226;39.702;2023-02-26T07:24:23;7.55;;;3.80;;
52650;SDS011;38537;47.226;39.702;2023-02-26T07:26:51;5.95;;;3.28;;
52650;SDS011;38537;47.226;39.702;2023-02-26T07:29:18;5.82;;;3.35;;
52650;SDS011;38537;47.226;39.702;2023-02-26T07:31:46;6.00;;;3.30;;
52650;SDS011;38537;47.226;39.702;2023-02-26T07:34:14;6.93;;;3.42;;
52650;SDS011;38537;47.226;39.702;2023-02-26T07:36:41;5.43;;;3.58;;
52650;SDS011;38537;47.226;39.702;2023-02-26T07:39:09;5.75;;;3.55;;
52650;SDS011;38537;47.226;39.702;2023-02-26T07:41:38;6.82;;;3.47;;
52650;SDS011;38537;47.226;39.702;2023-02-26T07:44:13;5.15;;;3.20;;
52650;SDS011;38537;47.226;39.702;2023-02-26T07:46:40;6.53;;;3.30;;
52650;SDS011;38537;47.226;39.702;2023-02-26T07:49:07;8.23;;;3.80;;
52650;SDS011;38537;47.226;39.702;2023-02-26T07:51:35;7.03;;;3.50;;
52650;SDS011;38537;47.226;39.702;2023-02-26T07:54:03;8.50;;;3.80;;
52650;SDS011;38537;47.226;39.702;2023-02-26T07:56:30;6.82;;;3.45;;
52650;SDS011;38537;47.226;39.702;2023-02-26T07:58:58;4.32;;;3.22;;
52650;SDS011;38537;47.226;39.702;2023-02-26T08:01:25;5.93;;;3.45;;
52650;SDS011;38537;47.226;39.702;2023-02-26T08:03:52;4.18;;;3.08;;
52650;SDS011;38537;47.226;39.702;2023-02-26T08:06:19;6.43;;;3.53;;
52650;SDS011;38537;47.226;39.702;2023-02-26T08:08:47;4.10;;;3.28;;
52650;SDS011;38537;47.226;39.702;2023-02-26T08:11:14;7.80;;;3.60;;
52650;SDS011;38537;47.226;39.702;2023-02-26T08:13:41;6.32;;;3.70;;
52650;SDS011;38537;47.226;39.702;2023-02-26T08:16:08;8.73;;;3.58;;
52650;SDS011;38537;47.226;39.702;2023-02-26T08:18:36;4.70;;;3.53;;
52650;SDS011;38537;47.226;39.702;2023-02-26T08:21:03;5.75;;;3.58;;
52650;SDS011;38537;47.226;39.702;2023-02-26T08:23:31;5.45;;;3.47;;
52650;SDS011;38537;47.226;39.702;2023-02-26T08:25:59;6.95;;;3.85;;
52650;SDS011;38537;47.226;39.702;2023-02-26T08:28:34;6.53;;;3.75;;
52650;SDS011;38537;47.226;39.702;2023-02-26T08:31:02;5.40;;;3.72;;
52650;SDS011;38537;47.226;39.702;2023-02-26T08:33:31;6.72;;;3.78;;
52650;SDS011;38537;47.226;39.702;2023-02-26T08:35:59;7.50;;;4.35;;
52650;SDS011;38537;47.226;39.702;2023-02-26T08:38:27;6.20;;;4.07;;
52650;SDS011;38537;47.226;39.702;2023-02-26T08:40:56;6.72;;;4.07;;
52650;SDS011;38537;47.226;39.702;2023-02-26T08:43:24;5.63;;;3.90;;
52650;SDS011;38537;47.226;39.702;2023-02-26T08:45:55;6.97;;;3.90;;
52650;SDS011;38537;47.226;39.702;2023-02-26T08:48:23;4.38;;;3.42;;
52650;SDS011;38537;47.226;39.702;2023-02-26T08:50:50;6.45;;;3.78;;
52650;SDS011;38537;47.226;39.702;2023-02-26T08:53:18;5.78;;;3.58;;
52650;SDS011;38537;47.226;39.702;2023-02-26T08:55:48;6.57;;;3.90;;
52650;SDS011;38537;47.226;39.702;2023-02-26T08:58:17;6.45;;;3.83;;
52650;SDS011;38537;47.226;39.702;2023-02-26T09:00:45;6.63;;;3.88;;
52650;SDS011;38537;47.226;39.702;2023-02-26T09:03:13;4.93;;;3.55;;
52650;SDS011;38537;47.226;39.702;2023-02-26T09:05:41;7.45;;;4.22;;
52650;SDS011;38537;47.226;39.702;2023-02-26T09:08:08;7.93;;;4.35;;
52650;SDS011;38537;47.226;39.702;2023-02-26T09:10:37;7.45;;;4.28;;
52650;SDS011;38537;47.226;39.702;2023-02-26T09:13:06;5.53;;;3.90;;
52650;SDS011;38537;47.226;39.702;2023-02-26T09:15:34;7.03;;;4.22;;
52650;SDS011;38537;47.226;39.702;2023-02-26T09:18:01;8.80;;;3.70;;
52650;SDS011;38537;47.226;39.702;2023-02-26T09:20:29;5.03;;;3.60;;
52650;SDS011;38537;47.226;39.702;2023-02-26T09:22:56;4.82;;;3.80;;
52650;SDS011;38537;47.226;39.702;2023-02-26T09:25:24;7.35;;;3.88;;
52650;SDS011;38537;47.226;39.702;2023-02-26T09:27:51;4.90;;;3.50;;
52650;SDS011;38537;47.226;39.702;2023-02-26T09:30:18;5.25;;;3.42;;
52650;SDS011;38537;47.226;39.702;2023-02-26T09:32:45;5.35;;;3.95;;
52650;SDS011;38537;47.226;39.702;2023-02-26T09:35:12;7.47;;;4.30;;
52650;SDS011;38537;47.226;39.702;2023-02-26T09:37:40;5.22;;;4.00;;
52650;SDS011;38537;47.226;39.702;2023-02-26T09:40:07;10.30;;;4.40;;
52650;SDS011;38537;47.226;39.702;2023-02-26T09:45:34;6.45;;;3.70;;
52650;SDS011;38537;47.226;39.702;2023-02-26T09:48:05;5.40;;;3.70;;
52650;SDS011;38537;47.226;39.702;2023-02-26T09:50:43;6.78;;;4.20;;
52650;SDS011;38537;47.226;39.702;2023-02-26T09:56:05;6.53;;;3.75;;
52650;SDS011;38537;47.226;39.702;2023-02-26T09:58:37;6.75;;;3.90;;
52650;SDS011;38537;47.226;39.702;2023-02-26T10:03:54;6.75;;;4.13;;
52650;SDS011;38537;47.226;39.702;2023-02-26T10:06:46;8.43;;;4.38;;
52650;SDS011;38537;47.226;39.702;2023-02-26T10:12:33;9.45;;;4.82;;
52650;SDS011;38537;47.226;39.702;2023-02-26T10:18:05;6.07;;;4.13;;
52650;SDS011;38537;47.226;39.702;2023-02-26T10:26:29;6.70;;;3.90;;
52650;SDS011;38537;47.226;39.702;2023-02-26T10:28:47;6.60;;;4.38;;
52650;SDS011;38537;47.226;39.702;2023-02-26T10:31:42;6.60;;;4.50;;
52650;SDS011;38537;47.226;39.702;2023-02-26T10:40:02;9.32;;;5.25;;
52650;SDS011;38537;47.226;39.702;2023-02-26T10:45:29;8.57;;;5.50;;
52650;SDS011;38537;47.226;39.702;2023-02-26T10:48:18;7.80;;;5.40;;
52650;SDS011;38537;47.226;39.702;2023-02-26T10:50:51;8.23;;;5.53;;
52650;SDS011;38537;47.226;39.702;2023-02-26T10:53:22;9.35;;;5.40;;
52650;SDS011;38537;47.226;39.702;2023-02-26T10:56:03;8.48;;;5.28;;
52650;SDS011;38537;47.226;39.702;2023-02-26T10:58:36;7.45;;;5.25;;
52650;SDS011;38537;47.226;39.702;2023-02-26T11:01:06;9.23;;;5.10;;
52650;SDS011;38537;47.226;39.702;2023-02-26T11:03:43;10.38;;;5.30;;
52650;SDS011;38537;47.226;39.702;2023-02-26T11:08:51;10.35;;;5.78;;
52650;SDS011;38537;47.226;39.702;2023-02-26T11:14:12;8.25;;;5.53;;
52650;SDS011;38537;47.226;39.702;2023-02-26T11:16:49;12.85;;;5.75;;
52650;SDS011;38537;47.226;39.702;2023-02-26T11:19:19;10.82;;;6.63;;
52650;SDS011;38537;47.226;39.702;2023-02-26T11:21:53;11.60;;;7.03;;
52650;SDS011;38537;47.226;39.702;2023-02-26T11:24:34;10.30;;;6.13;;
52650;SDS011;38537;47.226;39.702;2023-02-26T11:27:10;9.52;;;5.97;;
52650;SDS011;38537;47.226;39.702;2023-02-26T11:29:52;10.82;;;5.93;;
52650;SDS011;38537;47.226;39.702;2023-02-26T11:32:23;12.40;;;6.00;;
52650;SDS011;38537;47.226;39.702;2023-02-26T11:38:08;10.75;;;6.10;;
52650;SDS011;38537;47.226;39.702;2023-02-26T11:40:23;10.43;;;6.65;;
52650;SDS011;38537;47.226;39.702;2023-02-26T11:42:54;8.90;;;6.55;;
52650;SDS011;38537;47.226;39.702;2023-02-26T11:45:27;11.27;;;6.97;;
52650;SDS011;38537;47.226;39.702;2023-02-26T11:47:57;10.48;;;7.15;;
52650;SDS011;38537;47.226;39.702;2023-02-26T11:50:28;9.80;;;6.65;;
52650;SDS011;38537;47.226;39.702;2023-02-26T11:53:05;8.85;;;6.30;;
52650;SDS011;38537;47.226;39.702;2023-02-26T11:55:36;12.27;;;6.72;;
52650;SDS011;38537;47.226;39.702;2023-02-26T11:58:14;10.27;;;6.35;;
52650;SDS011;38537;47.226;39.702;2023-02-26T12:00:45;9.88;;;6.57;;
52650;SDS011;38537;47.226;39.702;2023-02-26T12:03:16;10.45;;;6.50;;
52650;SDS011;38537;47.226;39.702;2023-02-26T12:05:48;10.95;;;6.50;;
52650;SDS011;38537;47.226;39.702;2023-02-26T12:08:23;9.30;;;6.05;;
52650;SDS011;38537;47.226;39.702;2023-02-26T12:25:26;10.07;;;6.18;;
52650;SDS011;38537;47.226;39.702;2023-02-26T12:31:11;9.48;;;5.75;;
52650;SDS011;38537;47.226;39.702;2023-02-26T12:36:44;15.65;;;7.13;;
52650;SDS011;38537;47.226;39.702;2023-02-26T12:48:08;14.40;;;6.30;;
52650;SDS011;38537;47.226;39.702;2023-02-26T13:05:43;11.30;;;5.80;;
52650;SDS011;38537;47.226;39.702;2023-02-26T13:22:14;10.70;;;6.35;;
52650;SDS011;38537;47.226;39.702;2023-02-26T13:25:15;9.93;;;6.50;;
52650;SDS011;38537;47.226;39.702;2023-02-26T13:27:42;12.32;;;6.50;;
52650;SDS011;38537;47.226;39.702;2023-02-26T13:32:49;10.93;;;6.82;;
52650;SDS011;38537;47.226;39.702;2023-02-26T13:35:25;8.93;;;6.05;;
52650;SDS011;38537;47.226;39.702;2023-02-26T13:37:56;10.13;;;5.93;;
52650;SDS011;38537;47.226;39.702;2023-02-26T13:43:45;11.82;;;6.45;;
52650;SDS011;38537;47.226;39.702;2023-02-26T13:52:00;10.02;;;6.30;;
52650;SDS011;38537;47.226;39.702;2023-02-26T13:54:32;13.20;;;6.05;;
52650;SDS011;38537;47.226;39.702;2023-02-26T13:57:08;12.00;;;6.22;;
52650;SDS011;38537;47.226;39.702;2023-02-26T13:59:57;12.23;;;6.68;;
52650;SDS011;38537;47.226;39.702;2023-02-26T14:02:57;9.25;;;5.90;;
52650;SDS011;38537;47.226;39.702;2023-02-26T14:06:18;8.25;;;5.85;;
52650;SDS011;38537;47.226;39.702;2023-02-26T14:08:55;10.13;;;6.00;;
52650;SDS011;38537;47.226;39.702;2023-02-26T14:16:39;11.75;;;6.30;;
52650;SDS011;38537;47.226;39.702;2023-02-26T14:20:11;10.52;;;6.32;;
52650;SDS011;38537;47.226;39.702;2023-02-26T14:22:19;10.85;;;6.15;;
52650;SDS011;38537;47.226;39.702;2023-02-26T14:27:34;12.48;;;6.28;;
52650;SDS011;38537;47.226;39.702;2023-02-26T14:35:15;9.80;;;5.60;;
52650;SDS011;38537;47.226;39.702;2023-02-26T14:38:04;12.60;;;6.28;;
52650;SDS011;38537;47.226;39.702;2023-02-26T14:40:35;8.68;;;5.22;;
52650;SDS011;38537;47.226;39.702;2023-02-26T14:43:35;8.68;;;5.30;;
52650;SDS011;38537;47.226;39.702;2023-02-26T14:46:04;9.32;;;5.25;;
52650;SDS011;38537;47.226;39.702;2023-02-26T14:48:34;13.05;;;6.20;;
52650;SDS011;38537;47.226;39.702;2023-02-26T14:53:52;8.13;;;5.43;;
52650;SDS011;38537;47.226;39.702;2023-02-26T15:12:44;16.95;;;5.60;;
52650;SDS011;38537;47.226;39.702;2023-02-26T15:18:15;10.20;;;5.63;;
52650;SDS011;38537;47.226;39.702;2023-02-26T15:23:40;10.32;;;5.80;;
52650;SDS011;38537;47.226;39.702;2023-02-26T15:26:17;8.23;;;6.38;;
52650;SDS011;38537;47.226;39.702;2023-02-26T15:28:45;11.07;;;6.05;;
52650;SDS011;38537;47.226;39.702;2023-02-26T15:31:13;8.70;;;5.38;;
52650;SDS011;38537;47.226;39.702;2023-02-26T15:33:46;8.70;;;5.57;;
52650;SDS011;38537;47.226;39.702;2023-02-26T15:36:18;9.75;;;5.60;;
52650;SDS011;38537;47.226;39.702;2023-02-26T15:38:52;9.32;;;5.63;;
52650;SDS011;38537;47.226;39.702;2023-02-26T15:41:22;10.43;;;5.80;;
52650;SDS011;38537;47.226;39.702;2023-02-26T15:43:56;10.50;;;5.45;;
52650;SDS011;38537;47.226;39.702;2023-02-26T15:46:30;11.60;;;6.43;;
52650;SDS011;38537;47.226;39.702;2023-02-26T15:49:08;9.40;;;6.35;;
52650;SDS011;38537;47.226;39.702;2023-02-26T15:51:41;9.25;;;6.38;;
52650;SDS011;38537;47.226;39.702;2023-02-26T15:54:15;11.57;;;6.40;;
52650;SDS011;38537;47.226;39.702;2023-02-26T15:56:45;11.30;;;6.38;;
52650;SDS011;38537;47.226;39.702;2023-02-26T15:59:18;9.77;;;5.93;;
52650;SDS011;38537;47.226;39.702;2023-02-26T16:01:48;9.38;;;5.82;;
52650;SDS011;38537;47.226;39.702;2023-02-26T16:04:18;17.55;;;6.55;;
52650;SDS011;38537;47.226;39.702;2023-02-26T16:06:49;9.65;;;6.47;;
52650;SDS011;38537;47.226;39.702;2023-02-26T16:09:26;12.80;;;6.38;;
52650;SDS011;38537;47.226;39.702;2023-02-26T16:11:55;11.55;;;6.50;;
52650;SDS011;38537;47.226;39.702;2023-02-26T16:14:28;10.18;;;6.28;;
52650;SDS011;38537;47.226;39.702;2023-02-26T16:17:00;12.43;;;6.60;;
52650;SDS011;38537;47.226;39.702;2023-02-26T16:24:58;12.75;;;6.05;;
52650;SDS011;38537;47.226;39.702;2023-02-26T16:27:29;8.80;;;5.93;;
52650;SDS011;38537;47.226;39.702;2023-02-26T16:29:58;9.77;;;6.00;;
52650;SDS011;38537;47.226;39.702;2023-02-26T16:32:30;9.30;;;5.75;;
52650;SDS011;38537;47.226;39.702;2023-02-26T16:35:06;8.90;;;6.13;;
52650;SDS011;38537;47.226;39.702;2023-02-26T16:37:40;8.80;;;5.82;;
52650;SDS011;38537;47.226;39.702;2023-02-26T16:40:19;6.75;;;5.43;;
52650;SDS011;38537;47.226;39.702;2023-02-26T16:48:10;8.98;;;5.95;;
52650;SDS011;38537;47.226;39.702;2023-02-26T16:50:41;7.53;;;5.55;;
52650;SDS011;38537;47.226;39.702;2023-02-26T16:53:14;7.07;;;5.65;;
52650;SDS011;38537;47.226;39.702;2023-02-26T16:55:49;7.38;;;5.65;;
52650;SDS011;38537;47.226;39.702;2023-02-26T16:58:19;10.43;;;5.90;;
52650;SDS011;38537;47.226;39.702;2023-02-26T17:00:49;11.25;;;6.13;;
52650;SDS011;38537;47.226;39.702;2023-02-26T17:03:40;7.15;;;5.35;;
52650;SDS011;38537;47.226;39.702;2023-02-26T17:06:12;8.77;;;5.90;;
52650;SDS011;38537;47.226;39.702;2023-02-26T17:08:53;10.25;;;5.47;;
52650;SDS011;38537;47.226;39.702;2023-02-26T17:11:28;8.23;;;6.10;;
52650;SDS011;38537;47.226;39.702;2023-02-26T17:14:16;9.07;;;5.93;;
52650;SDS011;38537;47.226;39.702;2023-02-26T17:16:50;9.18;;;5.95;;
52650;SDS011;38537;47.226;39.702;2023-02-26T17:19:18;6.57;;;5.43;;
52650;SDS011;38537;47.226;39.702;2023-02-26T17:21:52;7.93;;;5.70;;
52650;SDS011;38537;47.226;39.702;2023-02-26T17:24:31;7.38;;;5.90;;
52650;SDS011;38537;47.226;39.702;2023-02-26T17:27:02;8.35;;;5.90;;
52650;SDS011;38537;47.226;39.702;2023-02-26T17:29:32;8.75;;;6.00;;
52650;SDS011;38537;47.226;39.702;2023-02-26T17:32:03;8.05;;;5.95;;
52650;SDS011;38537;47.226;39.702;2023-02-26T17:34:32;8.13;;;5.97;;
52650;SDS011;38537;47.226;39.702;2023-02-26T17:36:59;7.70;;;6.13;;
52650;SDS011;38537;47.226;39.702;2023-02-26T17:39:31;7.45;;;5.30;;
52650;SDS011;38537;47.226;39.702;2023-02-26T17:41:59;8.70;;;5.65;;
52650;SDS011;38537;47.226;39.702;2023-02-26T17:44:29;9.43;;;5.57;;
52650;SDS011;38537;47.226;39.702;2023-02-26T17:46:56;7.55;;;5.35;;
52650;SDS011;38537;47.226;39.702;2023-02-26T17:49:24;10.85;;;5.70;;
52650;SDS011;38537;47.226;39.702;2023-02-26T17:51:51;8.75;;;5.68;;
52650;SDS011;38537;47.226;39.702;2023-02-26T17:54:19;9.40;;;5.88;;
52650;SDS011;38537;47.226;39.702;2023-02-26T17:56:47;7.43;;;5.57;;
52650;SDS011;38537;47.226;39.702;2023-02-26T17:59:15;8.75;;;5.88;;
52650;SDS011;38537;47.226;39.702;2023-02-26T18:01:43;8.90;;;6.05;;
52650;SDS011;38537;47.226;39.702;2023-02-26T18:04:10;8.98;;;5.50;;
52650;SDS011;38537;47.226;39.702;2023-02-26T18:06:39;7.93;;;5.80;;
52650;SDS011;38537;47.226;39.702;2023-02-26T18:09:06;6.15;;;5.20;;
52650;SDS011;38537;47.226;39.702;2023-02-26T18:11:36;8.40;;;6.00;;
52650;SDS011;38537;47.226;39.702;2023-02-26T18:14:04;8.48;;;5.80;;
52650;SDS011;38537;47.226;39.702;2023-02-26T18:16:32;7.35;;;5.95;;
52650;SDS011;38537;47.226;39.702;2023-02-26T18:19:06;9.93;;;5.57;;
52650;SDS011;38537;47.226;39.702;2023-02-26T18:21:34;8.32;;;6.00;;
52650;SDS011;38537;47.226;39.702;2023-02-26T18:24:01;9.93;;;5.70;;
52650;SDS011;38537;47.226;39.702;2023-02-26T18:26:30;8.57;;;5.80;;
52650;SDS011;38537;47.226;39.702;2023-02-26T18:28:58;7.80;;;5.50;;
52650;SDS011;38537;47.226;39.702;2023-02-26T18:31:25;8.95;;;6.20;;
52650;SDS011;38537;47.226;39.702;2023-02-26T18:34:01;7.90;;;5.88;;